Time;durP1;ratioP1;P1;durP2;ratioP2;P2;SDS_P1;SDS_P2;PMS_P1;PMS_P2;Temp;Humidity;BMP_temperature;BMP_pressure;BME280_temperature;BME280_humidity;BME280_pressure;Samples;Min_cycle;Max_cycle;Signal;HPM_P1;HPM_P2
2023/07/13 00:00:36;;;;;;;;;;;;;;;18.15;57.60;99354.91;5072042;28;5719;-80
2023/07/13 00:03:02;;;;;;;;;;;;;;;17.84;57.23;99302.88;5074914;28;5398;-78
2023/07/13 00:05:29;;;;;;;;;;;;;;;18.14;57.77;99351.34;5071463;28;5391;-79
2023/07/13 00:07:56;;;;;;;;;;;;;;;18.34;57.09;99346.66;5074127;28;5394;-79
2023/07/13 00:10:22;;;;;;;;;;;;;;;18.00;58.09;99350.53;5068428;28;5861;-79
2023/07/13 00:12:54;;;;;;;;;;;;;;;18.41;56.69;99354.44;5074344;28;5609;-77
2023/07/13 00:15:22;;;;;;;;;;;;;;;18.21;57.51;99351.00;5074609;28;5611;-79
2023/07/13 00:17:49;;;;;;;;;;;;;;;18.09;57.52;99346.03;5077167;28;5602;-80
2023/07/13 00:20:16;;;;;;;;;;;;;;;18.12;57.70;99344.63;5073209;28;5297;-79
2023/07/13 00:22:42;;;;;;;;;;;;;;;18.01;58.02;99343.16;5052773;28;5411;-80
2023/07/13 00:25:09;;;;;;;;;;;;;;;18.14;57.58;99351.34;5070183;28;5583;-79
2023/07/13 00:27:35;;;;;;;;;;;;;;;18.26;57.23;99347.34;5078063;28;5477;-80
2023/07/13 00:30:03;;;;;;;;;;;;;;;18.21;57.32;99351.00;5079207;28;5537;-80
2023/07/13 00:32:30;;;;;;;;;;;;;;;18.14;57.44;99340.47;5071340;28;5546;-77
2023/07/13 00:34:58;;;;;;;;;;;;;;;18.30;56.92;99334.75;5077698;28;5335;-78
2023/07/13 00:37:24;;;;;;;;;;;;;;;18.32;57.02;99336.09;5079927;28;5401;-78
2023/07/13 00:39:51;;;;;;;;;;;;;;;18.26;57.13;99334.53;5078158;28;6283;-78
2023/07/13 00:42:18;;;;;;;;;;;;;;;18.17;57.47;99336.34;5034704;28;1229164;-79
2023/07/13 00:44:44;;;;;;;;;;;;;;;18.06;57.52;99333.00;5076896;28;5543;-78
2023/07/13 00:47:11;;;;;;;;;;;;;;;18.12;57.46;99333.72;5074887;28;5563;-79
2023/07/13 00:49:38;;;;;;;;;;;;;;;18.13;57.24;99341.59;5077179;28;5611;-80
2023/07/13 00:52:04;;;;;;;;;;;;;;;18.12;57.35;99339.97;5057928;28;5521;-79
2023/07/13 00:54:31;;;;;;;;;;;;;;;17.98;57.87;99336.41;5075269;28;6464;-79
2023/07/13 00:56:57;;;;;;;;;;;;;;;18.11;57.59;99341.06;5078858;28;5341;-79
2023/07/13 00:59:24;;;;;;;;;;;;;;;18.27;56.84;99335.38;5076184;28;5625;-79
2023/07/13 01:01:50;;;;;;;;;;;;;;;18.06;57.41;99334.88;5058728;28;5305;-78
2023/07/13 01:04:17;;;;;;;;;;;;;;;18.05;57.41;99327.84;5075344;28;5477;-78
2023/07/13 01:06:45;;;;;;;;;;;;;;;17.93;57.81;99331.84;5077219;28;5630;-79
2023/07/13 01:09:20;;;;;;;;;;;;;;;18.01;57.45;99326.81;5070886;28;5328;-79
2023/07/13 01:11:47;;;;;;;;;;;;;;;18.08;57.40;99329.97;5072640;28;5472;-78
2023/07/13 01:14:14;;;;;;;;;;;;;;;18.09;57.24;99326.94;5067665;28;5277;-80
2023/07/13 01:16:40;;;;;;;;;;;;;;;18.01;57.43;99329.56;5068344;28;5497;-79
2023/07/13 01:19:07;;;;;;;;;;;;;;;17.98;57.66;99343.75;5073041;28;5374;-80
2023/07/13 01:21:33;;;;;;;;;;;;;;;17.77;58.28;99329.66;5055361;28;5405;-78
2023/07/13 01:24:00;;;;;;;;;;;;;;;18.16;57.09;99329.28;5076508;28;6536;-79
2023/07/13 01:26:27;;;;;;;;;;;;;;;18.01;57.56;99330.34;5066756;28;5504;-80
2023/07/13 01:28:56;;;;;;;;;;;;;;;17.89;57.97;99330.03;5075963;28;5488;-79
2023/07/13 01:31:22;;;;;;;;;;;;;;;17.93;57.95;99328.31;5074936;28;6347;-78
2023/07/13 01:33:49;;;;;;;;;;;;;;;17.95;57.68;99328.81;5058995;28;5464;-78
2023/07/13 01:36:15;;;;;;;;;;;;;;;17.90;57.90;99328.91;5064875;28;5800;-79
2023/07/13 01:38:42;;;;;;;;;;;;;;;18.02;57.44;99334.69;5070760;28;5980;-79
2023/07/13 01:41:09;;;;;;;;;;;;;;;18.06;57.12;99329.44;5070997;28;5385;-79
2023/07/13 01:43:35;;;;;;;;;;;;;;;17.99;57.53;99340.72;5070631;28;5539;-79
2023/07/13 01:46:02;;;;;;;;;;;;;;;17.95;57.45;99336.19;5070762;28;5464;-79
2023/07/13 01:48:29;;;;;;;;;;;;;;;18.12;56.92;99336.44;5071465;28;5765;-78
2023/07/13 01:50:55;;;;;;;;;;;;;;;17.99;57.23;99331.75;5074294;28;5182;-80
2023/07/13 01:53:22;;;;;;;;;;;;;;;18.09;57.17;99335.13;5069253;28;5402;-79
2023/07/13 01:55:48;;;;;;;;;;;;;;;17.92;57.57;99337.59;5072106;28;5442;-80
2023/07/13 01:58:15;;;;;;;;;;;;;;;17.96;57.41;99326.91;5071908;28;6152;-80
2023/07/13 02:00:41;;;;;;;;;;;;;;;18.03;57.26;99332.75;5070026;28;6553;-79
2023/07/13 02:03:08;;;;;;;;;;;;;;;18.04;56.97;99332.47;5054427;28;5467;-78
2023/07/13 02:05:35;;;;;;;;;;;;;;;17.91;57.65;99327.78;5069668;28;6453;-78
2023/07/13 02:08:01;;;;;;;;;;;;;;;17.84;58.01;99325.44;5074651;28;6010;-79
2023/07/13 02:10:28;;;;;;;;;;;;;;;17.97;57.46;99326.63;5068091;28;5807;-80
2023/07/13 02:12:54;;;;;;;;;;;;;;;17.90;57.67;99328.91;5072908;28;5416;-79
2023/07/13 02:15:21;;;;;;;;;;;;;;;17.83;57.80;99323.84;5047045;28;5122;-79
2023/07/13 02:17:47;;;;;;;;;;;;;;;17.91;57.45;99325.91;5070749;28;5482;-79
2023/07/13 02:20:14;;;;;;;;;;;;;;;18.04;57.22;99331.69;5071770;28;5478;-79
2023/07/13 02:22:41;;;;;;;;;;;;;;;17.97;57.35;99325.78;5072571;28;5334;-78
2023/07/13 02:25:07;;;;;;;;;;;;;;;17.53;57.35;99251.63;5073312;28;5860;-78
2023/07/13 02:27:34;;;;;;;;;;;;;;;17.94;57.28;99327.19;5064575;28;5513;-78
2023/07/13 02:30:07;;;;;;;;;;;;;;;17.84;57.70;99321.91;5074939;28;5383;-79
2023/07/13 02:32:35;;;;;;;;;;;;;;;17.89;57.41;99319.94;5050923;28;5391;-77
2023/07/13 02:35:01;;;;;;;;;;;;;;;17.87;57.68;99322.13;5068597;28;5689;-81
2023/07/13 02:37:28;;;;;;;;;;;;;;;17.87;57.55;99324.06;5072349;28;5223;-81
2023/07/13 02:39:54;;;;;;;;;;;;;;;17.80;57.87;99321.72;5056069;28;5366;-80
2023/07/13 02:42:21;;;;;;;;;;;;;;;17.99;57.03;99329.84;5068531;28;5405;-80
2023/07/13 02:44:49;;;;;;;;;;;;;;;17.97;57.20;99325.78;5075096;28;5706;-80
2023/07/13 02:47:16;;;;;;;;;;;;;;;17.97;56.99;99326.63;5073798;28;5495;-78
2023/07/13 02:49:44;;;;;;;;;;;;;;;17.77;57.71;99324.19;5078379;28;5348;-82
2023/07/13 02:52:11;;;;;;;;;;;;;;;17.90;57.11;99328.91;5072742;28;5676;-80
2023/07/13 02:54:38;;;;;;;;;;;;;;;17.47;57.52;99271.81;5076374;28;5365;-80
2023/07/13 02:57:04;;;;;;;;;;;;;;;17.95;57.52;99331.53;5054316;28;5375;-79
2023/07/13 02:59:31;;;;;;;;;;;;;;;17.95;57.33;99326.09;5073770;28;5175;-82
2023/07/13 03:01:58;;;;;;;;;;;;;;;17.87;57.21;99335.75;5073740;28;5405;-81
2023/07/13 03:04:24;;;;;;;;;;;;;;;17.86;57.28;99341.50;5076903;28;5099;-79
2023/07/13 03:06:51;;;;;;;;;;;;;;;17.78;57.63;99337.53;5073392;28;5225;-81
2023/07/13 03:09:17;;;;;;;;;;;;;;;17.90;57.29;99340.59;5076723;28;5255;-83
2023/07/13 03:11:44;;;;;;;;;;;;;;;18.01;57.18;99337.72;5079005;28;5263;-83
2023/07/13 03:14:10;;;;;;;;;;;;;;;17.80;57.47;99342.69;5076617;28;5338;-83
2023/07/13 03:16:37;;;;;;;;;;;;;;;17.78;57.68;99342.97;5075970;28;5292;-80
2023/07/13 03:19:04;;;;;;;;;;;;;;;17.82;57.48;99344.00;5076538;28;5286;-80
2023/07/13 03:21:31;;;;;;;;;;;;;;;17.41;57.61;99282.00;5079400;28;5340;-83
2023/07/13 03:23:57;;;;;;;;;;;;;;;17.75;57.76;99349.00;5079560;28;5288;-82
2023/07/13 03:26:24;;;;;;;;;;;;;;;17.31;57.65;99282.16;5074744;28;5566;-80
2023/07/13 03:28:50;;;;;;;;;;;;;;;17.89;57.52;99346.34;5059449;28;5220;-80
2023/07/13 03:31:17;;;;;;;;;;;;;;;17.85;57.45;99342.59;5079626;28;5470;-79
2023/07/13 03:33:44;;;;;;;;;;;;;;;17.75;57.80;99348.19;5083641;28;5450;-81
2023/07/13 03:36:11;;;;;;;;;;;;;;;17.72;57.69;99344.13;5077160;28;5556;-81
2023/07/13 03:38:37;;;;;;;;;;;;;;;17.96;57.16;99352.22;5082658;28;5498;-81
2023/07/13 03:41:04;;;;;;;;;;;;;;;17.84;57.61;99351.88;5061449;28;5512;-81
2023/07/13 03:43:30;;;;;;;;;;;;;;;17.68;57.87;99346.66;5080059;28;5505;-81
2023/07/13 03:45:57;;;;;;;;;;;;;;;17.82;57.22;99348.63;5081994;28;5819;-79
2023/07/13 03:48:23;;;;;;;;;;;;;;;17.87;57.11;99346.63;5076111;28;5762;-81
2023/07/13 03:50:50;;;;;;;;;;;;;;;17.69;57.67;99345.53;5082829;28;5390;-81
2023/07/13 03:53:18;;;;;;;;;;;;;;;17.66;57.69;99342.59;5082900;28;6569;-79
2023/07/13 03:55:45;;;;;;;;;;;;;;;17.60;58.10;99341.06;5080622;28;5592;-81
2023/07/13 03:58:12;;;;;;;;;;;;;;;17.62;58.09;99353.28;5077467;28;5466;-80
2023/07/13 04:00:38;;;;;;;;;;;;;;;17.82;57.38;99354.09;5077900;28;5296;-81
2023/07/13 04:03:05;;;;;;;;;;;;;;;17.73;57.47;99356.63;5052622;28;5221;-81
2023/07/13 04:05:31;;;;;;;;;;;;;;;17.73;57.82;99361.28;5078561;28;5338;-81
2023/07/13 04:07:58;;;;;;;;;;;;;;;17.64;58.00;99366.59;5078106;28;5200;-80
2023/07/13 04:10:24;;;;;;;;;;;;;;;17.44;57.52;99310.53;5079828;28;5328;-80
2023/07/13 04:12:51;;;;;;;;;;;;;;;17.68;57.61;99362.97;5072064;28;5426;-82
2023/07/13 04:15:43;;;;;;;;;;;;;;;17.66;57.67;99358.94;5078740;28;5358;-80
2023/07/13 04:18:29;;;;;;;;;;;;;;;17.52;58.40;99363.50;5065244;28;5418;-83
2023/07/13 04:20:55;;;;;;;;;;;;;;;17.75;57.45;99361.81;5082260;28;5383;-83
2023/07/13 04:23:22;;;;;;;;;;;;;;;17.67;57.63;99360.53;5082369;28;5259;-79
2023/07/13 04:26:14;;;;;;;;;;;;;;;17.57;58.13;99368.88;5082564;28;5506;-80
2023/07/13 04:29:06;;;;;;;;;;;;;;;17.65;57.92;99362.78;5083611;28;5396;-79
2023/07/13 04:31:54;;;;;;;;;;;;;;;17.73;57.65;99367.53;5079423;28;5397;-82
2023/07/13 04:34:41;;;;;;;;;;;;;;;17.65;57.64;99373.66;5081890;28;5406;-82
2023/07/13 04:37:13;;;;;;;;;;;;;;;17.51;58.24;99372.78;5060426;28;5267;-78
2023/07/13 04:40:00;;;;;;;;;;;;;;;17.38;58.58;99368.84;5081848;28;5689;-80
2023/07/13 04:42:27;;;;;;;;;;;;;;;17.45;58.41;99367.41;5060542;28;6202;-83
2023/07/13 04:44:53;;;;;;;;;;;;;;;17.42;58.55;99372.63;5058468;28;5420;-82
2023/07/13 04:47:20;;;;;;;;;;;;;;;17.51;58.20;99378.22;5078501;28;5349;-81
2023/07/13 04:49:47;;;;;;;;;;;;;;;17.56;58.03;99376.25;5084575;28;5384;-82
2023/07/13 04:52:14;;;;;;;;;;;;;;;17.59;58.08;99378.38;5081959;28;5293;-81
2023/07/13 04:54:40;;;;;;;;;;;;;;;17.56;58.19;99381.69;5078285;28;5319;-82
2023/07/13 04:57:07;;;;;;;;;;;;;;;17.54;58.22;99383.06;5061552;28;5385;-81
2023/07/13 04:59:34;;;;;;;;;;;;;;;17.43;58.44;99369.59;5082116;28;5268;-81
2023/07/13 05:02:01;;;;;;;;;;;;;;;17.35;58.77;99372.16;5084706;28;5892;-80
2023/07/13 05:04:27;;;;;;;;;;;;;;;17.56;58.24;99375.41;5083706;28;5685;-80
2023/07/13 05:06:54;;;;;;;;;;;;;;;17.48;58.32;99369.53;5081675;28;5316;-80
2023/07/13 05:09:21;;;;;;;;;;;;;;;17.44;58.33;99384.00;5063261;28;5251;-81
2023/07/13 05:11:48;;;;;;;;;;;;;;;17.52;57.88;99382.56;5085855;28;5586;-82
2023/07/13 05:14:16;;;;;;;;;;;;;;;17.36;58.64;99387.41;5066922;28;5451;-81
2023/07/13 05:16:43;;;;;;;;;;;;;;;17.48;58.23;99388.59;5091113;28;5461;-82
2023/07/13 05:19:09;;;;;;;;;;;;;;;17.60;57.75;99392.78;5067995;28;5484;-81
2023/07/13 05:21:36;;;;;;;;;;;;;;;17.61;57.68;99397.13;5086093;28;5415;-81
2023/07/13 05:24:02;;;;;;;;;;;;;;;17.31;58.76;99396.44;5084985;28;5471;-81
2023/07/13 05:26:29;;;;;;;;;;;;;;;17.36;58.60;99390.94;5089019;28;5687;-81
2023/07/13 05:28:55;;;;;;;;;;;;;;;17.38;58.61;99401.50;5084261;28;5457;-82
2023/07/13 05:31:22;;;;;;;;;;;;;;;17.63;57.58;99403.09;5059413;28;5361;-83
2023/07/13 05:33:49;;;;;;;;;;;;;;;17.47;58.05;99397.03;5081555;28;5540;-83
2023/07/13 05:36:16;;;;;;;;;;;;;;;17.55;57.81;99401.81;5079351;28;5321;-82
2023/07/13 05:38:43;;;;;;;;;;;;;;;17.66;57.34;99408.75;5087555;28;5376;-82
2023/07/13 05:41:09;;;;;;;;;;;;;;;17.57;57.56;99410.50;5081315;28;5459;-81
2023/07/13 05:43:36;;;;;;;;;;;;;;;17.45;58.23;99410.94;5078023;28;5268;-82
2023/07/13 05:46:03;;;;;;;;;;;;;;;17.47;58.15;99416.06;5056272;28;5331;-81
2023/07/13 05:48:30;;;;;;;;;;;;;;;17.57;57.76;99413.22;5082032;28;5301;-82
2023/07/13 05:50:56;;;;;;;;;;;;;;;17.58;57.80;99409.41;5077304;28;5242;-82
2023/07/13 05:53:23;;;;;;;;;;;;;;;17.50;57.77;99410.09;5081107;28;5323;-81
2023/07/13 05:55:52;;;;;;;;;;;;;;;17.68;57.30;99411.19;5064625;28;5557;-83
2023/07/13 05:58:19;;;;;;;;;;;;;;;17.80;57.17;99413.50;5064325;28;5478;-84
2023/07/13 06:00:46;;;;;;;;;;;;;;;17.66;57.46;99422.34;5090078;28;5293;-83
2023/07/13 06:03:13;;;;;;;;;;;;;;;17.45;57.99;99421.03;5057188;28;5293;-82
2023/07/13 06:05:39;;;;;;;;;;;;;;;17.52;57.94;99428.81;5075031;28;5339;-83
2023/07/13 06:08:06;;;;;;;;;;;;;;;17.64;57.37;99412.88;5079792;28;5788;-84
2023/07/13 06:10:33;;;;;;;;;;;;;;;17.75;57.17;99410.81;5080260;28;5356;-83
2023/07/13 06:12:59;;;;;;;;;;;;;;;17.58;57.89;99417.56;5070376;28;5265;-82
2023/07/13 06:15:26;;;;;;;;;;;;;;;17.55;57.85;99423.59;5062441;28;5307;-81
2023/07/13 06:17:59;;;;;;;;;;;;;;;17.52;57.92;99417.94;5083801;28;5396;-83
2023/07/13 06:20:28;;;;;;;;;;;;;;;17.56;57.61;99430.69;5075494;28;5851;-83
2023/07/13 06:22:56;;;;;;;;;;;;;;;17.54;57.79;99430.16;5062965;28;5498;-81
2023/07/13 06:25:24;;;;;;;;;;;;;;;17.67;57.30;99426.69;5079436;28;5422;-85
2023/07/13 06:27:50;;;;;;;;;;;;;;;17.64;57.60;99429.19;5078788;28;5513;-83
2023/07/13 06:30:17;;;;;;;;;;;;;;;17.73;57.09;99423.91;5082849;28;5374;-84
2023/07/13 06:32:43;;;;;;;;;;;;;;;17.67;57.22;99429.41;5081786;28;5326;-82
2023/07/13 06:35:12;;;;;;;;;;;;;;;17.65;57.48;99425.38;5050729;28;5407;-83
2023/07/13 06:37:39;;;;;;;;;;;;;;;17.65;57.14;99426.19;5075972;28;5305;-83
2023/07/13 06:40:05;;;;;;;;;;;;;;;17.66;57.27;99422.34;5079856;28;5400;-87
2023/07/13 06:42:32;;;;;;;;;;;;;;;17.55;57.73;99423.59;5073140;28;5309;-83
2023/07/13 06:44:59;;;;;;;;;;;;;;;17.57;57.65;99437.72;5072697;28;5954;-84
2023/07/13 06:47:25;;;;;;;;;;;;;;;17.48;57.87;99432.13;5048669;28;5277;-81
2023/07/13 06:49:52;;;;;;;;;;;;;;;17.44;57.99;99430.28;5069140;28;5606;-84
2023/07/13 06:52:18;;;;;;;;;;;;;;;17.53;57.84;99434.00;5069846;28;5516;-84
2023/07/13 06:54:45;;;;;;;;;;;;;;;17.41;58.10;99433.59;5050440;28;5320;-83
2023/07/13 06:57:11;;;;;;;;;;;;;;;17.52;57.72;99437.78;5070284;28;5461;-83
2023/07/13 06:59:38;;;;;;;;;;;;;;;17.59;57.76;99432.81;5062258;28;5351;-81
2023/07/13 07:02:05;;;;;;;;;;;;;;;17.52;57.75;99439.72;5070315;28;5318;-82
2023/07/13 07:04:31;;;;;;;;;;;;;;;17.49;57.93;99441.09;5043926;28;5528;-82
2023/07/13 07:06:58;;;;;;;;;;;;;;;17.49;57.86;99439.19;5068221;28;5376;-86
2023/07/13 07:09:24;;;;;;;;;;;;;;;17.68;57.31;99452.84;5070259;28;5541;-82
2023/07/13 07:11:51;;;;;;;;;;;;;;;17.56;57.77;99447.00;5064693;28;5764;-85
2023/07/13 07:14:18;;;;;;;;;;;;;;;17.16;58.72;99446.41;5066963;28;5745;-88
2023/07/13 07:16:44;;;;;;;;;;;;;;;17.14;58.83;99454.03;5072288;28;5403;-81
2023/07/13 07:19:11;;;;;;;;;;;;;;;17.25;58.74;99449.31;5067832;28;5639;-83
2023/07/13 07:21:38;;;;;;;;;;;;;;;17.22;58.74;99450.69;5066733;28;5335;-84
2023/07/13 07:24:05;;;;;;;;;;;;;;;16.90;59.63;99456.75;5065154;28;5221;-82
2023/07/13 07:26:32;;;;;;;;;;;;;;;16.95;59.53;99453.19;5065004;28;5495;-84
2023/07/13 07:28:59;;;;;;;;;;;;;;;16.92;59.68;99451.03;5056643;28;5718;-81
2023/07/13 07:31:25;;;;;;;;;;;;;;;16.84;59.97;99452.47;5071925;28;5672;-81
2023/07/13 07:33:52;;;;;;;;;;;;;;;17.20;59.07;99447.44;5077594;28;5759;-82
2023/07/13 07:36:18;;;;;;;;;;;;;;;16.91;59.71;99460.28;5071416;28;5522;-82
2023/07/13 07:38:45;;;;;;;;;;;;;;;16.83;59.98;99453.56;5059829;28;5783;-81
2023/07/13 07:41:11;;;;;;;;;;;;;;;16.77;60.23;99460.16;5064730;28;5326;-82
2023/07/13 07:43:38;;;;;;;;;;;;;;;16.75;60.20;99454.97;5068717;28;5369;-82
2023/07/13 07:46:06;;;;;;;;;;;;;;;16.75;60.33;99452.25;5066383;28;5549;-82
2023/07/13 07:48:33;;;;;;;;;;;;;;;16.69;60.58;99452.59;5068131;28;5344;-84
2023/07/13 07:51:00;;;;;;;;;;;;;;;16.30;60.57;99405.38;5042556;28;5461;-86
2023/07/13 07:53:27;;;;;;;;;;;;;;;16.64;60.82;99461.59;5065877;28;5511;-83
2023/07/13 07:55:54;;;;;;;;;;;;;;;16.63;60.74;99465.41;5048898;28;5582;-84
2023/07/13 07:58:20;;;;;;;;;;;;;;;16.67;60.71;99462.94;5053485;28;5452;-83
2023/07/13 08:00:47;;;;;;;;;;;;;;;16.66;60.68;99472.19;5073940;28;5398;-82
2023/07/13 08:03:14;;;;;;;;;;;;;;;16.68;60.75;99472.72;5045825;28;5376;-85
2023/07/13 08:05:40;;;;;;;;;;;;;;;16.74;60.53;99471.59;5067575;28;5865;-84
2023/07/13 08:08:07;;;;;;;;;;;;;;;16.66;60.79;99470.28;5071336;28;5282;-82
2023/07/13 08:10:33;;;;;;;;;;;;;;;16.67;60.79;99473.81;5080459;28;5180;-82
2023/07/13 08:13:00;;;;;;;;;;;;;;;16.69;60.60;99474.34;5076690;28;5435;-85
2023/07/13 08:15:26;;;;;;;;;;;;;;;16.68;60.80;99473.53;5073848;28;5267;-84
2023/07/13 08:17:53;;;;;;;;;;;;;;;16.68;60.62;99473.53;5051322;28;5995;-84
2023/07/13 08:20:22;;;;;;;;;;;;;;;16.67;60.80;99471.09;5071708;28;5463;-83
2023/07/13 08:22:49;;;;;;;;;;;;;;;16.65;60.97;99467.84;5073418;28;5468;-83
2023/07/13 08:25:16;;;;;;;;;;;;;;;16.68;60.75;99472.72;5052266;28;5425;-84
2023/07/13 08:27:43;;;;;;;;;;;;;;;16.69;60.75;99479.78;5077962;28;5635;-82
2023/07/13 08:30:09;;;;;;;;;;;;;;;16.68;60.79;99470.81;5047355;28;5356;-80
2023/07/13 08:32:36;;;;;;;;;;;;;;;16.68;60.84;99473.53;5050800;28;5464;-81
2023/07/13 08:35:03;;;;;;;;;;;;;;;16.67;60.84;99480.06;5069438;28;5715;-82
2023/07/13 08:37:30;;;;;;;;;;;;;;;16.67;60.85;99474.63;5073945;28;5314;-85
2023/07/13 08:39:58;;;;;;;;;;;;;;;16.67;60.95;99476.53;5044341;28;5540;-83
2023/07/13 08:42:24;;;;;;;;;;;;;;;16.67;60.92;99474.63;5053079;28;5298;-81
2023/07/13 08:44:51;;;;;;;;;;;;;;;16.68;60.87;99473.53;5050643;28;5405;-82
2023/07/13 08:47:17;;;;;;;;;;;;;;;16.70;60.66;99482.19;5070925;28;5336;-84
2023/07/13 08:49:44;;;;;;;;;;;;;;;16.71;60.80;99483.03;5056215;28;5899;-81
2023/07/13 08:52:10;;;;;;;;;;;;;;;16.70;60.71;99478.69;5057338;28;5379;-81
2023/07/13 08:54:37;;;;;;;;;;;;;;;16.68;60.89;99487.13;5084932;28;5397;-82
2023/07/13 08:57:04;;;;;;;;;;;;;;;16.69;60.88;99483.31;5077466;28;5454;-83
2023/07/13 08:59:30;;;;;;;;;;;;;;;16.70;60.75;99487.63;5057443;28;5710;-81
2023/07/13 09:01:57;;;;;;;;;;;;;;;16.68;60.81;99489.84;5078235;28;5358;-81
2023/07/13 09:04:24;;;;;;;;;;;;;;;16.70;60.89;99484.91;5085615;28;4975;-81
2023/07/13 09:06:51;;;;;;;;;;;;;;;16.73;60.71;99492.50;5054873;28;5350;-82
2023/07/13 09:09:17;;;;;;;;;;;;;;;16.72;60.86;99485.44;5073419;28;5099;-86
2023/07/13 09:11:45;;;;;;;;;;;;;;;16.72;60.79;99488.16;5062730;28;5331;-83
2023/07/13 09:14:11;;;;;;;;;;;;;;;16.72;60.76;99493.59;5081176;28;5475;-84
2023/07/13 09:16:39;;;;;;;;;;;;;;;16.73;60.74;99492.50;5094077;28;5360;-85
2023/07/13 09:19:06;;;;;;;;;;;;;;;16.77;60.66;99488.16;5083090;28;5268;-80
2023/07/13 09:21:32;;;;;;;;;;;;;;;16.78;60.71;99492.50;5084263;28;5435;-81
2023/07/13 09:23:59;;;;;;;;;;;;;;;16.78;60.78;99487.06;5063199;28;5592;-84
2023/07/13 09:26:26;;;;;;;;;;;;;;;16.84;60.76;99489.72;5071159;28;5333;-81
2023/07/13 09:28:52;;;;;;;;;;;;;;;16.83;60.73;99491.66;5085150;28;5273;-82
2023/07/13 09:31:19;;;;;;;;;;;;;;;16.86;60.56;99487.53;5085700;28;5458;-82
2023/07/13 09:33:46;;;;;;;;;;;;;;;16.84;60.75;99493.25;5069852;28;5495;-82
2023/07/13 09:36:12;;;;;;;;;;;;;;;16.85;60.60;99491.34;5084417;28;5435;-84
2023/07/13 09:38:39;;;;;;;;;;;;;;;16.83;60.77;99486.22;5064899;28;5392;-82
2023/07/13 09:41:08;;;;;;;;;;;;;;;16.87;60.69;99483.72;5067411;28;5548;-83
2023/07/13 09:43:35;;;;;;;;;;;;;;;16.88;60.62;99482.59;5074892;28;5267;-84
2023/07/13 09:46:02;;;;;;;;;;;;;;;17.09;60.13;99486.75;5063803;28;5413;-84
2023/07/13 09:48:29;;;;;;;;;;;;;;;16.98;60.17;99488.78;5062956;28;5423;-85
2023/07/13 09:50:57;;;;;;;;;;;;;;;16.88;60.66;99493.50;5072841;28;5392;-84
2023/07/13 09:53:24;;;;;;;;;;;;;;;16.89;60.65;99497.84;5065425;28;5323;-81
2023/07/13 09:55:52;;;;;;;;;;;;;;;16.91;60.68;99498.34;5056458;28;5399;-83
2023/07/13 09:58:22;;;;;;;;;;;;;;;16.92;60.54;99500.00;5057309;28;5474;-85
2023/07/13 10:00:52;;;;;;;;;;;;;;;17.02;60.34;99497.16;5060342;28;5265;-86
2023/07/13 10:03:20;;;;;;;;;;;;;;;17.04;60.32;99497.69;5054525;28;5574;-84
2023/07/13 10:05:47;;;;;;;;;;;;;;;16.97;60.66;99492.59;5059613;28;5424;-83
2023/07/13 10:08:13;;;;;;;;;;;;;;;17.00;60.42;99496.63;5057750;28;5449;-82
2023/07/13 10:10:40;;;;;;;;;;;;;;;17.07;60.37;99497.09;5069575;28;5355;-84
2023/07/13 10:13:07;;;;;;;;;;;;;;;17.05;60.38;99498.50;5057341;28;5344;-85
2023/07/13 10:15:34;;;;;;;;;;;;;;;17.07;60.36;99488.16;5069328;28;5649;-85
2023/07/13 10:18:00;;;;;;;;;;;;;;;17.00;60.42;99493.91;5060610;28;5273;-82
2023/07/13 10:20:27;;;;;;;;;;;;;;;17.15;60.21;99499.22;5057023;28;5402;-84
2023/07/13 10:22:54;;;;;;;;;;;;;;;17.05;60.63;99495.78;5059340;28;5342;-83
2023/07/13 10:25:22;;;;;;;;;;;;;;;17.10;60.38;99495.72;5054600;28;5229;-84
2023/07/13 10:27:48;;;;;;;;;;;;;;;17.24;59.95;99502.91;5057785;28;5140;-86
2023/07/13 10:30:15;;;;;;;;;;;;;;;17.20;60.12;99507.28;5059873;28;5384;-85
2023/07/13 10:32:42;;;;;;;;;;;;;;;17.32;59.86;99506.88;5058817;28;5356;-85
2023/07/13 10:35:08;;;;;;;;;;;;;;;17.19;60.08;99499.44;5059573;28;5316;-83
2023/07/13 10:37:36;;;;;;;;;;;;;;;17.19;60.37;99497.53;5059617;28;5418;-86
2023/07/13 10:40:03;;;;;;;;;;;;;;;17.18;60.27;99500.53;5060715;28;5384;-85
2023/07/13 10:42:30;;;;;;;;;;;;;;;17.13;60.45;99500.59;5063329;28;5684;-87
2023/07/13 10:44:56;;;;;;;;;;;;;;;17.15;60.55;99495.69;5088454;28;5582;-84
2023/07/13 10:47:23;;;;;;;;;;;;;;;17.02;60.89;99499.88;5072209;28;5404;-83
2023/07/13 10:49:50;;;;;;;;;;;;;;;17.08;60.79;99503.34;5084103;28;5246;-84
2023/07/13 10:52:17;;;;;;;;;;;;;;;17.03;61.18;99504.25;5086551;28;5428;-82
2023/07/13 10:54:44;;;;;;;;;;;;;;;17.09;60.91;99505.81;5088022;28;5475;-84
2023/07/13 10:57:10;;;;;;;;;;;;;;;17.16;60.78;99502.72;5084911;28;5601;-85
2023/07/13 10:59:37;;;;;;;;;;;;;;;17.18;60.81;99490.47;5069199;28;5288;-85
2023/07/13 11:02:05;;;;;;;;;;;;;;;17.22;60.48;99499.66;5086419;28;5484;-85
2023/07/13 11:04:31;;;;;;;;;;;;;;;17.17;61.00;99505.16;5086822;28;5286;-86
2023/07/13 11:06:58;;;;;;;;;;;;;;;17.15;61.00;99512.00;5087142;28;5234;-84
2023/07/13 11:09:25;;;;;;;;;;;;;;;17.03;61.30;99506.97;5087103;28;5532;-81
2023/07/13 11:11:52;;;;;;;;;;;;;;;17.16;61.11;99506.25;5089442;28;5318;-85
2023/07/13 11:14:18;;;;;;;;;;;;;;;17.18;60.95;99506.78;5084321;28;5358;-84
2023/07/13 11:16:44;;;;;;;;;;;;;;;17.07;61.35;99507.19;5075156;28;5287;-83
2023/07/13 11:19:12;;;;;;;;;;;;;;;17.04;61.27;99505.84;5061981;28;5245;-86
2023/07/13 11:21:41;;;;;;;;;;;;;;;16.99;61.77;99511.34;5057246;28;5436;-83
2023/07/13 11:24:08;;;;;;;;;;;;;;;16.96;61.78;99503.75;5079323;28;5433;-82
2023/07/13 11:26:35;;;;;;;;;;;;;;;16.95;61.91;99510.28;5089570;28;5167;-82
2023/07/13 11:29:02;;;;;;;;;;;;;;;16.95;61.91;99513.00;5078072;28;5412;-86
2023/07/13 11:31:29;;;;;;;;;;;;;;;16.97;62.00;99506.19;5091389;28;5459;-84
2023/07/13 11:33:55;;;;;;;;;;;;;;;16.95;62.16;99516.53;5092475;28;5316;-84
2023/07/13 11:36:22;;;;;;;;;;;;;;;16.96;62.30;99511.91;5088681;28;5338;-82
2023/07/13 11:38:49;;;;;;;;;;;;;;;16.97;62.20;99518.97;5089098;28;5566;-83
2023/07/13 11:41:15;;;;;;;;;;;;;;;16.98;62.38;99515.16;5089191;28;5325;-82
2023/07/13 11:43:42;;;;;;;;;;;;;;;16.98;62.29;99510.53;5062987;28;5365;-84
2023/07/13 11:46:09;;;;;;;;;;;;;;;16.98;62.42;99513.25;5049173;28;5284;-83
2023/07/13 11:48:36;;;;;;;;;;;;;;;16.99;62.40;99520.28;5056585;28;5379;-84
2023/07/13 11:51:04;;;;;;;;;;;;;;;17.01;62.60;99514.59;5052872;28;5059;-82
2023/07/13 11:53:31;;;;;;;;;;;;;;;17.02;62.54;99524.34;5056630;28;5206;-80
2023/07/13 11:55:58;;;;;;;;;;;;;;;17.01;62.80;99520.84;5046350;28;5007;-82
2023/07/13 11:58:25;;;;;;;;;;;;;;;17.02;62.95;99513.47;5041291;28;5451;-80
2023/07/13 12:00:51;;;;;;;;;;;;;;;17.03;62.81;99513.19;5047890;28;5277;-84
2023/07/13 12:03:18;;;;;;;;;;;;;;;17.10;62.81;99512.84;5049219;28;5286;-84
2023/07/13 12:05:45;;;;;;;;;;;;;;;17.10;62.66;99512.06;5056541;28;5504;-80
2023/07/13 12:08:12;;;;;;;;;;;;;;;17.07;62.92;99516.16;5048307;28;5017;-83
2023/07/13 12:10:38;;;;;;;;;;;;;;;17.07;62.89;99502.56;5046322;28;5141;-82
2023/07/13 12:13:06;;;;;;;;;;;;;;;17.10;63.07;99512.06;5045650;28;5438;-85
2023/07/13 12:15:32;;;;;;;;;;;;;;;17.08;63.08;99506.88;5043393;28;5244;-87
2023/07/13 12:17:59;;;;;;;;;;;;;;;17.09;63.08;99518.56;5046097;28;5346;-83
2023/07/13 12:20:25;;;;;;;;;;;;;;;17.09;63.21;99515.84;5057786;28;5558;-82
2023/07/13 12:22:52;;;;;;;;;;;;;;;17.09;63.18;99507.69;5058308;28;5233;-80
2023/07/13 12:25:19;;;;;;;;;;;;;;;17.10;63.29;99518.28;5054882;28;5504;-83
2023/07/13 12:27:45;;;;;;;;;;;;;;;17.14;63.38;99515.81;5056008;28;5360;-84
2023/07/13 12:30:13;;;;;;;;;;;;;;;17.12;63.40;99512.56;5042292;28;5118;-83
2023/07/13 12:32:40;;;;;;;;;;;;;;;17.11;63.30;99517.19;5053004;28;5570;-83
2023/07/13 12:35:08;;;;;;;;;;;;;;;17.13;63.49;99512.28;5056885;28;5061;-80
2023/07/13 12:37:35;;;;;;;;;;;;;;;17.12;63.52;99497.06;5054613;28;5445;-83
2023/07/13 12:40:01;;;;;;;;;;;;;;;17.16;63.52;99505.47;5039526;28;5481;-84
2023/07/13 12:42:29;;;;;;;;;;;;;;;17.16;63.72;99513.63;5041462;28;5085;-81
2023/07/13 12:44:55;;;;;;;;;;;;;;;17.15;63.77;99512.81;5079324;28;5273;-84
2023/07/13 12:47:22;;;;;;;;;;;;;;;17.16;63.78;99508.97;5082844;28;5085;-81
2023/07/13 12:49:49;;;;;;;;;;;;;;;17.16;63.54;99508.16;5080862;28;5223;-85
2023/07/13 12:52:15;;;;;;;;;;;;;;;17.18;63.75;99511.44;5086690;28;5238;-84
2023/07/13 12:54:42;;;;;;;;;;;;;;;17.18;63.82;99508.72;5063107;28;5668;-85
2023/07/13 12:57:09;;;;;;;;;;;;;;;17.19;63.90;99508.41;5067533;28;5245;-85